Weather at Tanagra Air Base

Public forecast

Using degrees Celsius for public forecast. Weather courtesy of forecast.io.

Current aviation weather report (METAR) for Tanagra Air Base

Report is more than 6 hours old.

2022/11/14 14:50 (retrieved 2 years ago)

LGTG 141450Z 00000KT 9999 FEW025 16/10 Q1023 RMK FEW180 BLU

Closest aviation forecast (TAF) to Tanagra Air Base

Forecast is more than 12 hours old.

Closest forecast is Elefsis Airport, 16.6 nm (30.7 km) S.

2023/02/22 17:13 (retrieved 1 year ago)

TAF LFSX 221708Z 2217/2315 CNL TAF LGEL 221700Z 2218/2318 VRB05KT 9999 FEW025